Time;durP1;ratioP1;P1;durP2;ratioP2;P2;SDS_P1;SDS_P2;PMS_P1;PMS_P2;Temp;Humidity;BMP_temperature;BMP_pressure;BME280_temperature;BME280_humidity;BME280_pressure;Samples;Min_cycle;Max_cycle;Signal;HPM_P1;HPM_P2
2021/10/05 00:00:01;;;;;;;20.80;14.43;;;14.70;99.90;;;;;;4966620;28;20818;-82
2021/10/05 00:02:27;;;;;;;16.57;13.73;;;14.70;99.90;;;;;;4964304;28;20426;-82
2021/10/05 00:04:54;;;;;;;20.80;15.27;;;14.70;99.90;;;;;;4958782;28;20462;-81
2021/10/05 00:07:21;;;;;;;18.67;15.23;;;14.90;99.90;;;;;;4957606;29;20450;-82
2021/10/05 00:09:48;;;;;;;18.40;15.37;;;14.90;99.90;;;;;;4958026;29;20547;-79
2021/10/05 00:12:16;;;;;;;18.90;14.80;;;14.80;99.90;;;;;;4967201;28;20455;-82
2021/10/05 00:14:44;;;;;;;22.80;16.70;;;14.70;99.90;;;;;;4944140;28;20483;-82
2021/10/05 00:17:10;;;;;;;18.63;16.00;;;14.70;99.90;;;;;;4939148;29;20451;-82
2021/10/05 00:19:37;;;;;;;18.60;15.47;;;14.70;99.90;;;;;;4940359;29;20432;-82
2021/10/05 00:22:05;;;;;;;20.00;15.67;;;14.90;99.90;;;;;;4959500;28;20460;-80
2021/10/05 00:24:32;;;;;;;18.23;14.07;;;15.00;99.90;;;;;;4978221;28;20459;-81
2021/10/05 00:26:58;;;;;;;17.83;15.50;;;15.00;99.90;;;;;;4963822;28;20524;-78
2021/10/05 00:29:26;;;;;;;19.67;15.00;;;14.90;99.90;;;;;;4959326;29;20940;-83
2021/10/05 00:31:53;;;;;;;19.83;14.40;;;14.80;99.90;;;;;;4965961;28;20908;-82
2021/10/05 00:34:20;;;;;;;20.80;15.40;;;14.60;99.90;;;;;;4979938;28;20467;-82
2021/10/05 00:36:47;;;;;;;19.67;15.83;;;14.60;99.90;;;;;;4981788;28;20483;-82
2021/10/05 00:39:14;;;;;;;18.70;14.87;;;14.70;99.90;;;;;;4983276;28;20426;-82
2021/10/05 00:41:41;;;;;;;21.00;15.87;;;14.60;99.90;;;;;;4986855;28;20483;-82
2021/10/05 00:44:08;;;;;;;20.40;17.03;;;14.50;99.90;;;;;;4953796;28;20480;-82
2021/10/05 00:46:36;;;;;;;20.30;17.03;;;14.50;99.90;;;;;;4944119;28;20427;-81
2021/10/05 00:49:03;;;;;;;19.73;16.77;;;14.40;99.90;;;;;;4961511;29;20456;-83
2021/10/05 00:51:30;;;;;;;22.87;16.70;;;14.20;99.90;;;;;;4966193;28;20509;-81
2021/10/05 00:53:57;;;;;;;23.43;17.67;;;14.20;99.90;;;;;;4978497;28;20924;-82
2021/10/05 00:56:25;;;;;;;22.83;19.33;;;14.20;99.90;;;;;;4962734;29;20435;-81
2021/10/05 00:58:52;;;;;;;27.83;18.60;;;14.00;99.90;;;;;;4961718;29;20894;-81
2021/10/05 01:01:19;;;;;;;23.40;17.40;;;14.00;99.90;;;;;;4957650;28;20456;-82
2021/10/05 01:03:47;;;;;;;24.93;18.30;;;14.10;99.90;;;;;;4980051;28;20446;-81
2021/10/05 01:06:14;;;;;;;27.77;21.60;;;14.10;99.90;;;;;;4982857;28;20456;-81
2021/10/05 01:08:41;;;;;;;26.43;20.03;;;14.10;99.90;;;;;;4977859;28;20897;-81
2021/10/05 01:11:08;;;;;;;28.47;21.63;;;14.00;99.90;;;;;;4963950;28;20547;-81
2021/10/05 01:13:34;;;;;;;24.87;18.43;;;14.00;99.90;;;;;;4981801;28;20456;-81
2021/10/05 01:16:01;;;;;;;26.83;19.53;;;14.00;99.90;;;;;;4981397;28;20431;-81
2021/10/05 01:18:28;;;;;;;22.60;17.90;;;14.20;99.90;;;;;;4962557;29;20452;-81
2021/10/05 01:20:58;;;;;;;20.53;16.90;;;14.20;99.90;;;;;;4964442;28;20431;-81
2021/10/05 01:23:25;;;;;;;24.50;19.63;;;14.20;99.90;;;;;;4982514;28;20423;-81
2021/10/05 01:25:52;;;;;;;25.00;17.80;;;14.20;99.90;;;;;;4981805;28;20526;-81
2021/10/05 01:28:20;;;;;;;23.33;18.77;;;14.20;99.90;;;;;;4980044;28;20542;-81
2021/10/05 01:30:47;;;;;;;25.23;19.80;;;14.30;99.90;;;;;;4984223;28;20499;-80
2021/10/05 01:33:15;;;;;;;21.47;17.30;;;14.10;99.90;;;;;;4958340;28;20437;-81
2021/10/05 01:35:42;;;;;;;24.93;20.20;;;14.00;99.90;;;;;;4961504;28;20552;-81
2021/10/05 01:38:10;;;;;;;24.53;18.80;;;14.20;99.90;;;;;;4998155;23;20573;-80
2021/10/05 01:40:37;;;;;;;25.43;19.40;;;14.10;99.90;;;;;;5018292;28;20447;-78
2021/10/05 01:43:04;;;;;;;23.60;18.70;;;14.30;99.90;;;;;;5017577;28;20987;-78
2021/10/05 01:45:31;;;;;;;25.53;19.57;;;14.30;99.90;;;;;;5018081;28;20821;-78
2021/10/05 01:47:58;;;;;;;23.47;17.70;;;14.20;99.90;;;;;;5017890;28;20881;-78
2021/10/05 01:50:27;;;;;;;25.93;19.90;;;14.20;99.90;;;;;;5011280;28;20490;-79
2021/10/05 01:52:54;;;;;;;24.83;19.07;;;14.20;99.90;;;;;;5017949;28;20458;-82
2021/10/05 01:55:22;;;;;;;26.07;20.60;;;14.10;99.90;;;;;;5017054;28;20484;-78
2021/10/05 01:57:49;;;;;;;27.03;19.17;;;14.00;99.90;;;;;;5017053;28;20553;-79
2021/10/05 02:00:16;;;;;;;24.73;18.20;;;14.00;99.90;;;;;;5016786;28;20421;-78
2021/10/05 02:02:43;;;;;;;24.67;19.00;;;14.10;99.90;;;;;;5015896;28;20581;-78
2021/10/05 02:05:10;;;;;;;28.27;19.70;;;14.10;99.90;;;;;;5009022;28;20947;-79
2021/10/05 02:07:37;;;;;;;25.07;17.77;;;14.10;99.90;;;;;;4997852;28;20471;-79
2021/10/05 02:10:06;;;;;;;25.77;18.73;;;14.30;99.90;;;;;;5012626;28;20484;-78
2021/10/05 02:12:35;;;;;;;23.10;18.60;;;14.30;99.90;;;;;;5018816;28;20461;-78
2021/10/05 02:15:02;;;;;;;22.20;18.30;;;14.20;99.90;;;;;;5016879;28;20821;-79
2021/10/05 02:17:28;;;;;;;24.47;19.40;;;14.40;99.90;;;;;;5017277;28;20481;-79
2021/10/05 02:19:55;;;;;;;24.23;18.53;;;14.50;99.90;;;;;;5017376;28;20447;-79
2021/10/05 02:22:22;;;;;;;23.80;16.90;;;14.60;99.90;;;;;;5006771;28;20520;-79
2021/10/05 02:24:49;;;;;;;23.17;17.77;;;14.70;99.90;;;;;;5017218;28;20461;-79
2021/10/05 02:27:18;;;;;;;22.43;17.70;;;14.50;99.90;;;;;;5013584;28;20490;-79
2021/10/05 02:29:47;;;;;;;23.67;19.53;;;14.40;99.90;;;;;;5011589;28;20888;-79
2021/10/05 02:32:14;;;;;;;23.67;19.40;;;14.50;99.90;;;;;;5006399;28;20455;-81
2021/10/05 02:34:42;;;;;;;24.80;17.53;;;14.40;99.90;;;;;;5010564;28;20541;-79
2021/10/05 02:37:10;;;;;;;26.73;19.30;;;14.50;99.90;;;;;;5016283;28;20417;-79
2021/10/05 02:39:37;;;;;;;24.03;18.30;;;14.30;99.90;;;;;;5016490;28;20549;-78
2021/10/05 02:42:05;;;;;;;22.80;16.90;;;14.50;99.90;;;;;;5018920;28;20540;-78
2021/10/05 02:44:32;;;;;;;22.80;18.10;;;14.50;99.90;;;;;;5022086;28;20425;-78
2021/10/05 02:47:00;;;;;;;23.90;18.03;;;14.50;99.90;;;;;;5007097;28;20429;-78
2021/10/05 02:49:27;;;;;;;22.60;16.90;;;14.50;99.90;;;;;;5009511;28;21078;-78
2021/10/05 02:51:54;;;;;;;21.67;16.97;;;14.40;99.90;;;;;;5016877;28;20878;-79
2021/10/05 02:54:21;;;;;;;25.33;18.00;;;14.30;99.90;;;;;;5016450;28;20425;-79
2021/10/05 02:56:48;;;;;;;21.57;16.60;;;14.40;99.90;;;;;;5009387;28;20462;-79
2021/10/05 02:59:16;;;;;;;24.40;17.77;;;14.40;99.90;;;;;;5005921;28;21006;-79
2021/10/05 03:01:43;;;;;;;23.03;18.07;;;14.30;99.90;;;;;;5007200;28;20467;-79
2021/10/05 03:04:11;;;;;;;24.23;16.07;;;14.30;99.90;;;;;;4996405;28;20424;-79
2021/10/05 03:06:38;;;;;;;22.97;17.57;;;14.20;99.90;;;;;;5015347;28;20437;-79
2021/10/05 03:09:05;;;;;;;23.17;16.43;;;14.10;99.90;;;;;;5015395;28;20484;-78
2021/10/05 03:11:32;;;;;;;23.40;16.40;;;14.00;99.90;;;;;;5015978;28;20468;-79
2021/10/05 03:13:59;;;;;;;23.13;16.20;;;14.00;99.90;;;;;;5015605;28;20441;-79
2021/10/05 03:16:38;;;;;;;24.73;16.83;;;13.90;99.90;;;;;;5016123;28;20429;-79
2021/10/05 03:19:05;;;;;;;23.77;16.53;;;14.00;99.90;;;;;;5003245;28;20970;-79
2021/10/05 03:21:33;;;;;;;21.47;15.50;;;14.10;99.90;;;;;;5015708;28;20550;-79
2021/10/05 03:24:00;;;;;;;21.47;15.97;;;14.20;99.90;;;;;;5016998;28;20454;-79
2021/10/05 03:26:27;;;;;;;23.93;15.50;;;14.10;99.90;;;;;;5017282;28;20792;-81
2021/10/05 03:28:53;;;;;;;21.07;15.97;;;14.10;99.90;;;;;;5016535;28;20452;-79
2021/10/05 03:31:20;;;;;;;19.47;15.03;;;14.10;99.90;;;;;;5016595;28;20463;-79
2021/10/05 03:33:47;;;;;;;20.10;15.27;;;14.10;99.90;;;;;;5016895;28;20808;-79
2021/10/05 03:36:15;;;;;;;20.97;15.93;;;14.30;99.90;;;;;;5009422;28;20462;-79
2021/10/05 03:38:45;;;;;;;20.60;14.73;;;14.30;99.90;;;;;;5016496;28;20452;-79
2021/10/05 03:41:12;;;;;;;18.20;13.33;;;14.10;99.90;;;;;;5016571;28;20429;-80
2021/10/05 03:43:39;;;;;;;18.40;12.03;;;14.20;99.90;;;;;;5016945;28;20437;-80
2021/10/05 03:46:08;;;;;;;16.83;11.87;;;14.30;99.90;;;;;;5015637;28;20431;-79
2021/10/05 03:48:35;;;;;;;18.90;12.70;;;14.30;99.90;;;;;;5018131;28;20485;-78
2021/10/05 03:51:02;;;;;;;16.77;11.67;;;14.30;99.90;;;;;;5008417;28;20553;-80
2021/10/05 03:53:33;;;;;;;16.07;12.07;;;14.30;99.90;;;;;;5001654;28;20842;-79
2021/10/05 03:56:01;;;;;;;17.40;12.03;;;14.20;99.90;;;;;;5000364;28;20787;-80
2021/10/05 03:58:28;;;;;;;15.70;10.90;;;14.20;99.90;;;;;;5016619;28;20452;-80
2021/10/05 04:00:55;;;;;;;16.53;12.23;;;14.10;99.90;;;;;;5015326;28;20433;-80
2021/10/05 04:03:23;;;;;;;17.30;12.47;;;14.20;99.90;;;;;;5016423;28;20451;-80
2021/10/05 04:05:50;;;;;;;16.17;11.40;;;14.10;99.90;;;;;;4999243;28;20434;-80
2021/10/05 04:08:18;;;;;;;16.17;11.77;;;14.20;99.90;;;;;;4999416;28;20532;-80
2021/10/05 04:10:45;;;;;;;18.23;11.47;;;14.20;99.90;;;;;;5000355;28;20469;-77
2021/10/05 04:13:13;;;;;;;14.40;10.97;;;14.10;99.90;;;;;;5019324;28;20454;-79
2021/10/05 04:15:40;;;;;;;17.03;13.17;;;14.10;99.90;;;;;;5018027;28;20450;-78
2021/10/05 04:18:07;;;;;;;16.60;11.70;;;14.10;99.90;;;;;;5019279;28;20444;-78
2021/10/05 04:20:34;;;;;;;18.20;12.80;;;14.20;99.90;;;;;;5017689;28;20532;-79
2021/10/05 04:23:00;;;;;;;16.97;12.60;;;14.30;99.90;;;;;;5015888;28;20512;-79
2021/10/05 04:25:27;;;;;;;17.03;12.17;;;14.20;99.90;;;;;;5009195;28;20539;-78
2021/10/05 04:27:54;;;;;;;17.47;13.00;;;14.10;99.90;;;;;;4999849;28;20477;-79
2021/10/05 04:30:22;;;;;;;17.53;13.13;;;14.10;99.90;;;;;;5000046;28;20475;-79
2021/10/05 04:32:49;;;;;;;16.87;11.90;;;14.10;99.90;;;;;;5014163;28;20457;-79
2021/10/05 04:35:16;;;;;;;17.20;12.73;;;14.00;99.90;;;;;;5019514;28;20405;-78
2021/10/05 04:37:43;;;;;;;18.93;12.67;;;14.00;99.90;;;;;;5019277;28;20494;-80
2021/10/05 04:40:11;;;;;;;21.03;13.60;;;14.00;99.90;;;;;;5015981;28;20445;-79
2021/10/05 04:42:38;;;;;;;21.30;13.23;;;14.20;99.90;;;;;;5013329;28;20429;-79
2021/10/05 04:45:05;;;;;;;16.30;11.90;;;14.20;99.90;;;;;;5018764;28;20933;-79
2021/10/05 04:47:35;;;;;;;18.70;13.20;;;14.00;99.90;;;;;;5019845;28;20444;-79
2021/10/05 04:50:02;;;;;;;17.70;11.90;;;13.90;99.90;;;;;;5019877;28;20899;-79
2021/10/05 04:52:29;;;;;;;19.23;13.47;;;14.00;99.90;;;;;;5019761;28;20520;-78
2021/10/05 04:54:56;;;;;;;16.50;12.07;;;14.10;99.90;;;;;;5020199;28;20455;-78
2021/10/05 04:57:23;;;;;;;16.33;11.83;;;14.20;99.90;;;;;;5007193;28;20432;-78
2021/10/05 04:59:50;;;;;;;16.23;11.33;;;14.30;99.90;;;;;;5008692;28;20451;-78
2021/10/05 05:02:16;;;;;;;13.73;9.87;;;14.40;99.90;;;;;;5018311;28;20512;-79
2021/10/05 05:04:45;;;;;;;15.47;11.07;;;14.50;99.90;;;;;;5022543;28;20450;-79
2021/10/05 05:07:12;;;;;;;14.87;11.10;;;14.40;99.90;;;;;;5019938;28;20454;-79
2021/10/05 05:09:39;;;;;;;15.80;11.10;;;14.40;99.90;;;;;;5018982;28;20782;-79
2021/10/05 05:12:07;;;;;;;14.20;10.70;;;14.10;99.90;;;;;;5015086;28;20546;-81
2021/10/05 05:14:34;;;;;;;15.57;11.07;;;14.00;99.90;;;;;;5013335;28;20831;-79
2021/10/05 05:17:01;;;;;;;13.03;9.43;;;14.30;99.90;;;;;;5018331;28;20537;-79
2021/10/05 05:19:27;;;;;;;12.83;9.57;;;14.30;99.90;;;;;;5019854;28;20496;-79
2021/10/05 05:21:59;;;;;;;14.87;10.43;;;14.20;99.90;;;;;;5019594;28;20737;-79
2021/10/05 05:24:26;;;;;;;14.23;10.30;;;14.30;99.90;;;;;;5019273;28;20932;-79
2021/10/05 05:26:53;;;;;;;13.53;10.30;;;14.20;99.90;;;;;;5021051;28;20544;-79
2021/10/05 05:29:20;;;;;;;13.17;10.30;;;14.30;99.90;;;;;;5020949;28;20461;-79
2021/10/05 05:31:48;;;;;;;13.43;9.43;;;14.30;99.90;;;;;;5021274;28;20461;-79
2021/10/05 05:34:14;;;;;;;13.90;9.60;;;14.30;99.90;;;;;;5020792;28;20425;-80
2021/10/05 05:36:41;;;;;;;13.27;10.03;;;14.50;99.90;;;;;;5018190;28;20455;-80
2021/10/05 05:39:10;;;;;;;13.70;10.20;;;14.40;99.90;;;;;;5018733;28;20550;-81
2021/10/05 05:41:36;;;;;;;15.30;10.80;;;14.40;99.90;;;;;;5019482;28;20426;-81
2021/10/05 05:44:03;;;;;;;14.07;10.83;;;14.40;99.90;;;;;;5019332;28;20545;-81
2021/10/05 05:46:30;;;;;;;14.93;10.00;;;14.30;99.90;;;;;;5018471;28;20459;-80
2021/10/05 05:48:57;;;;;;;14.60;10.50;;;14.40;99.90;;;;;;5019352;28;20473;-79
2021/10/05 05:51:24;;;;;;;15.30;10.40;;;14.30;99.90;;;;;;5018771;28;20485;-81
2021/10/05 05:53:51;;;;;;;13.93;10.17;;;14.20;99.90;;;;;;5018941;28;20476;-79
2021/10/05 05:56:19;;;;;;;13.10;9.43;;;14.20;99.90;;;;;;5012028;28;20538;-81
2021/10/05 05:58:48;;;;;;;14.23;10.00;;;14.20;99.90;;;;;;4999229;28;20487;-80
2021/10/05 06:01:15;;;;;;;13.97;9.00;;;14.20;99.90;;;;;;5005110;28;20836;-79
2021/10/05 06:03:42;;;;;;;13.40;9.50;;;14.10;99.90;;;;;;5018009;28;20415;-80
2021/10/05 06:06:09;;;;;;;13.60;8.93;;;14.20;99.90;;;;;;5018256;28;20956;-79
2021/10/05 06:08:36;;;;;;;12.83;9.20;;;14.20;99.90;;;;;;5018210;28;20961;-78
2021/10/05 06:11:03;;;;;;;13.53;8.33;;;14.20;99.90;;;;;;5007511;28;20961;-78
2021/10/05 06:13:31;;;;;;;12.67;8.63;;;14.20;99.90;;;;;;5017095;28;20425;-79
2021/10/05 06:15:58;;;;;;;12.40;9.10;;;14.10;99.90;;;;;;5015670;28;20545;-78
2021/10/05 06:18:24;;;;;;;11.70;7.90;;;14.10;99.90;;;;;;5016278;28;20959;-78
2021/10/05 06:20:51;;;;;;;12.47;8.47;;;14.10;99.90;;;;;;5016176;28;20432;-78
2021/10/05 06:23:18;;;;;;;13.03;8.97;;;14.10;99.90;;;;;;5016051;28;20822;-78
2021/10/05 06:25:45;;;;;;;12.57;7.50;;;14.00;99.90;;;;;;5003481;28;20455;-77
2021/10/05 06:28:12;;;;;;;14.03;8.70;;;14.00;99.90;;;;;;5019150;28;20474;-78
2021/10/05 06:30:40;;;;;;;12.27;7.60;;;14.00;99.90;;;;;;5018572;28;20487;-78
2021/10/05 06:33:07;;;;;;;11.37;7.37;;;14.10;99.90;;;;;;5015932;28;20436;-78
2021/10/05 06:35:34;;;;;;;10.80;7.20;;;14.10;99.90;;;;;;5017682;28;20425;-79
2021/10/05 06:38:02;;;;;;;10.40;7.30;;;14.10;99.90;;;;;;5017602;28;20544;-78
2021/10/05 06:40:32;;;;;;;11.60;7.23;;;14.20;99.90;;;;;;4997895;28;20456;-78
2021/10/05 06:42:59;;;;;;;10.50;7.30;;;14.20;99.90;;;;;;5014812;28;20791;-78
2021/10/05 06:45:27;;;;;;;12.20;8.80;;;14.20;99.90;;;;;;5015425;28;20431;-78
2021/10/05 06:47:55;;;;;;;10.37;7.47;;;14.30;99.90;;;;;;4996977;28;20883;-78
2021/10/05 06:50:23;;;;;;;11.27;7.93;;;14.30;99.90;;;;;;4997252;28;20866;-78
2021/10/05 06:52:50;;;;;;;10.80;7.37;;;14.50;99.90;;;;;;5012247;28;20464;-80
2021/10/05 06:55:17;;;;;;;10.97;7.50;;;14.70;99.90;;;;;;5016967;28;20809;-77
2021/10/05 06:57:44;;;;;;;10.47;6.67;;;14.70;99.90;;;;;;5017865;28;20478;-79
2021/10/05 07:00:13;;;;;;;11.73;7.60;;;14.60;99.90;;;;;;5017653;28;20460;-79
2021/10/05 07:02:41;;;;;;;12.73;8.47;;;14.40;99.90;;;;;;5017035;28;20457;-80
2021/10/05 07:05:09;;;;;;;10.40;7.50;;;14.30;99.90;;;;;;5018742;28;20429;-78
2021/10/05 07:07:38;;;;;;;10.70;7.50;;;14.40;99.90;;;;;;5016628;28;20475;-79
2021/10/05 07:10:07;;;;;;;10.23;7.53;;;14.40;99.90;;;;;;5017848;28;20451;-79
2021/10/05 07:12:34;;;;;;;12.20;8.67;;;14.40;99.90;;;;;;5017287;28;20465;-80
2021/10/05 07:15:01;;;;;;;11.13;6.50;;;14.60;99.90;;;;;;5017491;28;20427;-79
2021/10/05 07:17:28;;;;;;;10.13;6.90;;;14.70;99.90;;;;;;5017732;28;20453;-79
2021/10/05 07:19:55;;;;;;;9.90;7.10;;;14.90;99.90;;;;;;5019247;28;20845;-78
2021/10/05 07:22:23;;;;;;;13.10;7.27;;;14.80;99.90;;;;;;5021417;28;20481;-79
2021/10/05 07:24:52;;;;;;;10.43;6.73;;;14.80;99.90;;;;;;5007926;28;20421;-81
2021/10/05 07:27:19;;;;;;;10.80;7.33;;;14.80;99.90;;;;;;5016429;28;20441;-81
2021/10/05 07:29:47;;;;;;;9.57;6.67;;;14.80;99.90;;;;;;5015968;28;20828;-83
2021/10/05 07:32:14;;;;;;;9.40;6.50;;;14.80;99.90;;;;;;5021168;28;20464;-83
2021/10/05 07:34:42;;;;;;;10.30;7.87;;;14.70;99.90;;;;;;5018447;28;20799;-81
2021/10/05 07:37:09;;;;;;;11.40;7.57;;;14.80;99.90;;;;;;5008026;28;20434;-79
2021/10/05 07:39:38;;;;;;;9.93;7.23;;;15.10;99.90;;;;;;5038472;23;20529;-80
2021/10/05 07:42:05;;;;;;;10.87;6.90;;;15.40;99.90;;;;;;5023956;28;20514;-80
2021/10/05 07:44:33;;;;;;;13.23;7.20;;;15.30;99.90;;;;;;5024073;28;20416;-81
2021/10/05 07:47:00;;;;;;;11.70;7.33;;;15.30;99.90;;;;;;5031835;28;20424;-82
2021/10/05 07:49:27;;;;;;;9.93;6.73;;;15.30;99.90;;;;;;5019715;28;20463;-80
2021/10/05 07:51:54;;;;;;;9.97;6.87;;;15.50;99.90;;;;;;4997487;28;20458;-80
2021/10/05 07:54:21;;;;;;;14.13;7.40;;;15.30;99.90;;;;;;4990039;28;20439;-81
2021/10/05 07:56:49;;;;;;;10.30;7.50;;;15.20;99.90;;;;;;4980216;28;20539;-81
2021/10/05 07:59:16;;;;;;;8.87;6.40;;;15.20;99.90;;;;;;4995543;28;20517;-81
2021/10/05 08:01:48;;;;;;;9.07;6.50;;;15.20;99.90;;;;;;4980782;28;20460;-81
2021/10/05 08:04:15;;;;;;;9.60;6.30;;;15.10;99.90;;;;;;4997967;28;20473;-83
2021/10/05 08:06:43;;;;;;;9.30;7.00;;;15.20;99.90;;;;;;5000293;28;20429;-83
2021/10/05 08:09:10;;;;;;;9.60;6.77;;;15.20;99.90;;;;;;5007150;28;20498;-80
2021/10/05 08:11:37;;;;;;;10.63;7.67;;;15.20;99.90;;;;;;5010334;28;20589;-84
2021/10/05 08:14:06;;;;;;;11.10;8.00;;;15.20;99.90;;;;;;5011297;28;20415;-84
2021/10/05 08:16:32;;;;;;;13.40;7.50;;;15.10;99.90;;;;;;5010934;28;20443;-82
2021/10/05 08:19:00;;;;;;;12.07;7.20;;;15.10;99.90;;;;;;4996213;28;20462;-80
2021/10/05 08:21:27;;;;;;;8.50;6.47;;;15.10;99.90;;;;;;5003166;28;20539;-78
2021/10/05 08:23:54;;;;;;;10.93;6.27;;;15.10;99.90;;;;;;5004159;28;20443;-79
2021/10/05 08:26:22;;;;;;;10.00;6.80;;;15.10;99.90;;;;;;5007546;28;20430;-82
2021/10/05 08:28:49;;;;;;;9.83;6.97;;;15.10;99.90;;;;;;5000634;28;20492;-80
2021/10/05 08:31:19;;;;;;;7.73;5.60;;;15.10;99.90;;;;;;5005916;28;20482;-78
2021/10/05 08:33:46;;;;;;;9.73;6.00;;;15.10;99.90;;;;;;5009201;28;20512;-81
2021/10/05 08:36:13;;;;;;;16.77;9.13;;;15.10;99.90;;;;;;5025819;28;20516;-79
2021/10/05 08:38:41;;;;;;;10.00;5.43;;;15.20;99.90;;;;;;5011891;28;20836;-78
2021/10/05 08:41:08;;;;;;;7.90;4.90;;;15.30;99.90;;;;;;5006561;28;20455;-78
2021/10/05 08:43:35;;;;;;;6.93;4.77;;;15.30;99.90;;;;;;5002550;28;20546;-78
2021/10/05 08:46:03;;;;;;;6.77;4.80;;;15.30;99.90;;;;;;5005557;28;20531;-79
2021/10/05 08:48:32;;;;;;;6.67;4.93;;;15.50;99.90;;;;;;5008604;28;20476;-78
2021/10/05 08:50:59;;;;;;;6.20;4.70;;;15.60;99.90;;;;;;5015899;28;20538;-78
2021/10/05 08:53:28;;;;;;;6.10;4.37;;;15.70;99.90;;;;;;5007134;28;20554;-78
2021/10/05 08:55:55;;;;;;;6.47;3.90;;;15.70;99.90;;;;;;5010791;28;20427;-80
2021/10/05 08:58:22;;;;;;;6.83;4.67;;;15.70;99.90;;;;;;5005751;28;20518;-78
2021/10/05 09:00:49;;;;;;;6.60;5.00;;;15.80;99.90;;;;;;4994372;28;20494;-80
2021/10/05 09:03:22;;;;;;;6.20;4.57;;;15.80;99.90;;;;;;5009015;28;20491;-80
2021/10/05 09:05:51;;;;;;;7.37;4.40;;;15.70;99.90;;;;;;5016612;28;20439;-81
2021/10/05 09:08:22;;;;;;;5.97;4.13;;;15.80;99.90;;;;;;5011518;28;20468;-78
2021/10/05 09:11:01;;;;;;;6.13;4.30;;;15.80;99.90;;;;;;4995911;28;20480;-81
2021/10/05 09:13:32;;;;;;;5.53;3.80;;;15.90;99.90;;;;;;5000747;28;20475;-81
2021/10/05 09:15:59;;;;;;;6.10;4.30;;;15.80;99.90;;;;;;4999302;28;20538;-80
2021/10/05 09:18:25;;;;;;;5.47;3.70;;;15.90;99.90;;;;;;5002840;28;20471;-81
2021/10/05 09:20:54;;;;;;;5.83;4.20;;;15.90;99.90;;;;;;5008514;28;20954;-84
2021/10/05 09:23:21;;;;;;;7.50;4.90;;;16.00;99.90;;;;;;5002366;28;20463;-80
2021/10/05 09:25:50;;;;;;;7.93;4.50;;;16.00;99.90;;;;;;5000701;28;20538;-80
2021/10/05 09:28:19;;;;;;;6.00;4.40;;;16.00;99.90;;;;;;5000173;28;20455;-79
2021/10/05 09:30:57;;;;;;;5.77;4.10;;;15.90;99.90;;;;;;5000298;28;20459;-80
2021/10/05 09:33:23;;;;;;;5.90;3.90;;;15.90;99.90;;;;;;5001563;28;20563;-83
2021/10/05 09:35:51;;;;;;;6.73;4.27;;;16.00;99.90;;;;;;5001130;28;20760;-80
2021/10/05 09:38:22;;;;;;;6.10;4.03;;;16.10;99.90;;;;;;4994247;28;20484;-80
2021/10/05 09:40:59;;;;;;;7.83;4.20;;;16.10;99.90;;;;;;5000163;28;20470;-82
2021/10/05 09:43:26;;;;;;;7.17;4.67;;;16.10;99.90;;;;;;4999809;28;20440;-80
2021/10/05 09:45:53;;;;;;;7.00;4.63;;;16.10;99.90;;;;;;4999701;28;20470;-81
2021/10/05 09:48:20;;;;;;;6.80;4.23;;;16.30;99.90;;;;;;4998430;28;20472;-82
2021/10/05 09:50:47;;;;;;;7.67;5.07;;;16.40;99.90;;;;;;4980568;28;20814;-82
2021/10/05 09:53:16;;;;;;;6.93;5.00;;;16.50;99.90;;;;;;4990822;28;20545;-82
2021/10/05 09:55:46;;;;;;;6.60;4.57;;;16.50;99.90;;;;;;4998218;28;20463;-82
2021/10/05 09:58:16;;;;;;;7.33;5.43;;;16.60;99.90;;;;;;4980253;28;20576;-81
2021/10/05 10:00:50;;;;;;;7.33;4.70;;;16.70;99.90;;;;;;4988769;28;20454;-80
2021/10/05 10:03:18;;;;;;;6.80;4.93;;;16.50;99.90;;;;;;5002865;28;20564;-81
2021/10/05 10:05:46;;;;;;;6.67;3.80;;;16.50;99.90;;;;;;4996863;28;20955;-81
2021/10/05 10:08:13;;;;;;;5.60;3.20;;;16.50;99.90;;;;;;5013382;28;20517;-80
2021/10/05 10:10:40;;;;;;;7.37;3.47;;;16.70;99.90;;;;;;5028006;28;20481;-80
2021/10/05 10:13:11;;;;;;;5.73;4.13;;;16.70;99.90;;;;;;5022659;28;20476;-82
2021/10/05 10:15:40;;;;;;;6.27;4.37;;;16.80;99.90;;;;;;5007241;28;20414;-81
2021/10/05 10:18:08;;;;;;;5.73;3.93;;;16.80;99.90;;;;;;4996646;28;20484;-81
2021/10/05 10:20:37;;;;;;;4.80;3.23;;;16.90;99.90;;;;;;4980127;28;20987;-81
2021/10/05 10:23:15;;;;;;;5.33;3.53;;;16.80;99.90;;;;;;4979768;28;20869;-81
2021/10/05 10:25:54;;;;;;;4.93;3.43;;;16.90;99.90;;;;;;4980013;28;20430;-82
2021/10/05 10:28:28;;;;;;;5.70;4.03;;;16.70;99.90;;;;;;4980567;28;20839;-82
2021/10/05 10:30:59;;;;;;;6.00;3.60;;;17.00;99.90;;;;;;5014935;28;20862;-81
2021/10/05 10:33:28;;;;;;;5.20;3.30;;;16.90;99.90;;;;;;5015264;28;20997;-81
2021/10/05 10:35:56;;;;;;;9.50;5.13;;;17.00;99.90;;;;;;4990614;28;20430;-81
2021/10/05 10:38:25;;;;;;;4.80;3.13;;;17.10;99.90;;;;;;4984641;28;20556;-81
2021/10/05 10:40:52;;;;;;;5.80;3.20;;;17.30;99.90;;;;;;4988983;28;20461;-81
2021/10/05 10:43:21;;;;;;;7.00;4.80;;;17.40;99.90;;;;;;4989865;28;20820;-81
2021/10/05 10:45:52;;;;;;;4.73;3.17;;;17.30;99.90;;;;;;4988391;28;20452;-83
2021/10/05 10:48:34;;;;;;;6.83;4.43;;;17.30;99.90;;;;;;4990321;28;20474;-82
2021/10/05 10:51:15;;;;;;;7.27;4.70;;;17.40;99.90;;;;;;4989407;28;20447;-82
2021/10/05 10:53:44;;;;;;;6.77;4.50;;;17.30;99.90;;;;;;4985241;28;20473;-84
2021/10/05 10:56:14;;;;;;;5.00;3.40;;;17.30;99.90;;;;;;4989974;28;20626;-82
2021/10/05 10:58:45;;;;;;;5.30;3.87;;;17.30;99.90;;;;;;4988258;28;20473;-83
2021/10/05 11:01:14;;;;;;;4.50;2.80;;;17.30;99.90;;;;;;4995417;28;20907;-83
2021/10/05 11:03:42;;;;;;;4.70;3.40;;;17.20;99.90;;;;;;4992364;28;20966;-82
2021/10/05 11:06:15;;;;;;;5.97;3.37;;;17.30;99.90;;;;;;4987426;28;20444;-83
2021/10/05 11:08:54;;;;;;;4.50;3.20;;;17.50;99.90;;;;;;4991523;28;20672;-82
2021/10/05 11:11:29;;;;;;;5.33;3.47;;;17.50;99.90;;;;;;5003454;28;20422;-83
2021/10/05 11:13:57;;;;;;;5.10;3.67;;;17.50;99.90;;;;;;4993911;28;20480;-83
2021/10/05 11:16:25;;;;;;;7.20;3.33;;;17.50;99.90;;;;;;4985463;28;20959;-83
2021/10/05 11:19:03;;;;;;;4.33;3.20;;;17.40;99.90;;;;;;4988170;28;20485;-83
2021/10/05 11:21:34;;;;;;;4.90;2.30;;;17.40;99.90;;;;;;4990297;28;20533;-83
2021/10/05 11:24:01;;;;;;;6.00;3.83;;;17.50;99.90;;;;;;4993408;28;20450;-84
2021/10/05 11:26:32;;;;;;;4.53;2.53;;;17.40;99.90;;;;;;4990795;28;20545;-82
2021/10/05 11:29:01;;;;;;;4.93;2.37;;;17.40;99.90;;;;;;4988200;28;20482;-81
2021/10/05 11:31:41;;;;;;;6.97;2.63;;;17.40;99.90;;;;;;4990555;28;20488;-82
2021/10/05 11:34:07;;;;;;;3.17;1.90;;;17.40;99.90;;;;;;4990030;28;20448;-82
2021/10/05 11:36:34;;;;;;;3.90;2.10;;;17.50;99.90;;;;;;4992588;28;20423;-83
2021/10/05 11:39:02;;;;;;;4.17;2.20;;;17.70;99.90;;;;;;4988474;28;21005;-83
2021/10/05 11:41:37;;;;;;;3.67;2.10;;;17.70;99.90;;;;;;4992632;28;20453;-82
2021/10/05 11:44:12;;;;;;;4.53;2.00;;;17.90;99.90;;;;;;4992650;28;20438;-82
2021/10/05 11:46:51;;;;;;;4.23;2.27;;;18.00;99.90;;;;;;5001613;28;20840;-79
2021/10/05 11:49:19;;;;;;;3.30;1.80;;;17.90;99.90;;;;;;4978176;28;20472;-79
2021/10/05 11:51:48;;;;;;;3.40;1.90;;;17.90;99.90;;;;;;4988598;28;20457;-79
2021/10/05 11:54:19;;;;;;;5.57;2.33;;;17.90;99.90;;;;;;5008007;28;20487;-80
2021/10/05 11:56:46;;;;;;;4.60;2.07;;;17.90;99.90;;;;;;5012659;28;20455;-80
2021/10/05 11:59:26;;;;;;;3.50;1.40;;;17.80;99.90;;;;;;4988164;28;20528;-80
2021/10/05 12:01:59;;;;;;;3.17;1.60;;;17.70;99.90;;;;;;4995684;28;20945;-80
2021/10/05 12:04:27;;;;;;;3.10;1.43;;;17.60;99.90;;;;;;4996836;28;20442;-78
2021/10/05 12:06:59;;;;;;;3.00;1.60;;;17.60;99.90;;;;;;5009631;28;20452;-78
2021/10/05 12:09:26;;;;;;;3.97;1.40;;;17.60;99.90;;;;;;4995748;28;20555;-78
2021/10/05 12:11:58;;;;;;;4.83;2.40;;;17.60;99.90;;;;;;4996811;28;20508;-78
2021/10/05 12:14:32;;;;;;;5.20;1.70;;;17.70;99.90;;;;;;4983639;28;20476;-79
2021/10/05 12:17:02;;;;;;;6.33;1.87;;;17.80;99.90;;;;;;4996168;28;20454;-79
2021/10/05 12:19:33;;;;;;;3.03;1.30;;;17.90;99.90;;;;;;4996276;28;20902;-78
2021/10/05 12:22:02;;;;;;;4.73;1.50;;;17.90;99.90;;;;;;4995231;28;21036;-82
2021/10/05 12:24:37;;;;;;;3.40;1.43;;;17.90;99.90;;;;;;4996196;28;20533;-78
2021/10/05 12:27:04;;;;;;;3.20;1.50;;;18.10;99.90;;;;;;4996060;28;20500;-79
2021/10/05 12:29:32;;;;;;;4.47;1.60;;;18.00;99.90;;;;;;4997591;28;20474;-79
2021/10/05 12:32:02;;;;;;;2.80;1.30;;;18.10;99.90;;;;;;4994384;28;20430;-78
2021/10/05 12:34:37;;;;;;;4.63;1.50;;;18.00;99.90;;;;;;4996375;28;20492;-79
2021/10/05 12:37:07;;;;;;;2.93;1.40;;;18.10;99.90;;;;;;5004931;28;20822;-78
2021/10/05 12:39:34;;;;;;;3.00;1.33;;;18.00;99.90;;;;;;4997692;28;20455;-79